Minneapolis, Minnesota
Traffic Map
Current Weather Conditions
Minneapolis, Minnesota
Few Clouds
Few Clouds
32°
Feels Like: 24°
Wind Chill: 24° Ceiling: Unl
Heat Index: 32° Visibility: 10mi
Dew Point: 22° Wind: 9mph
Humidity: 66% Direction: 320° (NW)
Pressure: 30.19in Gusts: 0mph
Raw Report DataKMSP 170453Z 32008KT 10SM FEW200 00/M06 A3019 RMK AO2 SLP232 T00001056
Traffic Incident Summary
Active as of:
Severity:
Category:
InformationThere was an issue retrieving the traffic information for this location. Please try a different location or try again shortly.
Advertisements